LiveATC.Net - Listen to live air traffic control over the Internet!


ICAO: KUES  IATA: UES   Airport: Waukesha County Airport
City: Waukesha   State/Province: Wisconsin
Country: United States   Continent: North America
KUES METAR Weather: KUES 182045Z 34013G19KT 7SM SCT013 OVC022 02/M01 A2957
KUES Flight Activity (FlightAware)
KUES Airport Info   (AirNav) (iFlightPlanner)
KUES VFR Sectional Chart   (iFlightPlanner) 
KUES IFR Low Chart   (iFlightPlanner) 
KUES Gnd/Twr
Feed Status: DOWN
Last heard on: 2017-11-15 05:21:02 (3 days 16 hours 18 minutes ago)
KUES Gnd/Twr Audio Archives
FacilityFrequency
Waukesha Ground121.600
Waukesha Tower123.700


NOTICE

Unauthorized use prohibited. See LiveATC.net Terms of Service


Find LiveATC Audio Streams


Airport/ARTCC Code

Frequency Search
(e.g., 124.400, 128.75)
Site-wide search
 


Browse LiveATC Feeds
LiveATC Coverage Map
Top 50 LiveATC Feeds
Bad Weather Areas

LiveATC FAQ
Offer a LiveATC Feed
Contact LiveATC.net
Press Inquiries

LiveATC on iPhone
LiveATC on Android

Windows Phone
Windows 8/10

LiveATC Mobile
(Mobile browser)

ATC Audio Archives
Interesting Recordings

LiveATC Forums


Home Page
About LiveATC.net
Make a Donation
Terms of Use
Privacy Policy

Canadian Air Freqs

AIRMETs/SIGMETs

FAA Airport Status
Nat'l Airspace Status
Arrival Demand Charts


Server Software By:
Icecast.org
Liquidsoap